Time;durP1;ratioP1;P1;durP2;ratioP2;P2;SDS_P1;SDS_P2;PMS_P1;PMS_P2;Temp;Humidity;BMP_temperature;BMP_pressure;BME280_temperature;BME280_humidity;BME280_pressure;Samples;Min_cycle;Max_cycle;Signal;HPM_P1;HPM_P2
2022/03/18 00:02:26;;;;;;;15.77;10.37;;;2.70;99.90;;;;;;5014656;28;20646;-80
2022/03/18 00:04:54;;;;;;;12.27;9.67;;;2.70;99.90;;;;;;5015938;28;20179;-80
2022/03/18 00:07:20;;;;;;;14.37;10.43;;;2.60;99.90;;;;;;4998520;28;20299;-80
2022/03/18 00:09:47;;;;;;;10.80;9.43;;;2.60;99.90;;;;;;5015966;28;20183;-80
2022/03/18 00:12:13;;;;;;;13.90;10.07;;;2.60;99.90;;;;;;5015768;28;20584;-80
2022/03/18 00:14:39;;;;;;;13.53;9.70;;;2.60;99.90;;;;;;5014632;28;20188;-80
2022/03/18 00:17:06;;;;;;;10.70;9.60;;;2.50;99.90;;;;;;5015546;28;20211;-79
2022/03/18 00:19:33;;;;;;;11.00;9.67;;;2.40;99.90;;;;;;4998513;28;20180;-79
2022/03/18 00:22:01;;;;;;;11.07;9.23;;;2.30;99.90;;;;;;4998086;28;20180;-79
2022/03/18 00:24:34;;;;;;;13.87;10.13;;;2.30;99.90;;;;;;4998249;28;20186;-80
2022/03/18 00:27:00;;;;;;;11.33;9.63;;;2.30;99.90;;;;;;5016066;28;20191;-79
2022/03/18 00:29:26;;;;;;;17.33;12.00;;;2.40;99.90;;;;;;4998773;28;20188;-79
2022/03/18 00:31:53;;;;;;;17.90;11.17;;;2.50;99.90;;;;;;5016470;28;20195;-79
2022/03/18 00:34:19;;;;;;;12.17;10.57;;;2.40;99.90;;;;;;5014714;28;20176;-80
2022/03/18 00:36:44;;;;;;;18.30;11.77;;;2.40;99.90;;;;;;5015814;28;20282;-80
2022/03/18 00:39:10;;;;;;;15.87;11.27;;;2.30;99.90;;;;;;5016064;28;20530;-79
2022/03/18 00:41:36;;;;;;;15.60;11.13;;;2.30;99.90;;;;;;5018655;28;20183;-79
2022/03/18 00:44:02;;;;;;;15.90;11.57;;;2.40;99.90;;;;;;5018691;28;20175;-80
2022/03/18 00:46:28;;;;;;;13.27;11.20;;;2.40;99.90;;;;;;5019128;28;20204;-79
2022/03/18 00:54:22;;;;;;;13.17;10.63;;;2.20;99.90;;;;;;5018679;28;20230;-78
2022/03/18 00:56:48;;;;;;;13.90;11.10;;;2.20;99.90;;;;;;5017079;28;20250;-78
2022/03/18 00:59:14;;;;;;;14.67;10.73;;;2.20;99.90;;;;;;5018703;28;20172;-78
2022/03/18 01:01:40;;;;;;;21.07;11.37;;;2.10;99.90;;;;;;5018533;28;20172;-78
2022/03/18 01:04:06;;;;;;;16.97;10.80;;;2.10;99.90;;;;;;5017004;28;20258;-78
2022/03/18 01:06:32;;;;;;;14.97;10.27;;;2.10;99.90;;;;;;5017902;28;20208;-78
2022/03/18 01:08:58;;;;;;;13.67;11.60;;;2.20;99.90;;;;;;5016834;28;20183;-78
2022/03/18 01:11:24;;;;;;;13.63;10.60;;;2.20;99.90;;;;;;5018851;28;20179;-78
2022/03/18 01:13:50;;;;;;;12.23;10.13;;;2.10;99.90;;;;;;5001809;28;20219;-78
2022/03/18 01:16:16;;;;;;;10.90;9.80;;;2.10;99.90;;;;;;5019493;28;20595;-78
2022/03/18 01:18:42;;;;;;;11.63;10.27;;;2.20;99.90;;;;;;5001050;28;20717;-78
2022/03/18 01:21:08;;;;;;;11.47;10.20;;;2.20;99.90;;;;;;5018357;28;20210;-78
2022/03/18 01:23:33;;;;;;;16.07;11.77;;;2.20;99.90;;;;;;5018206;28;20239;-78
2022/03/18 01:25:59;;;;;;;14.77;10.30;;;2.20;99.90;;;;;;5017067;28;20207;-78
2022/03/18 01:28:27;;;;;;;15.97;10.87;;;2.10;99.90;;;;;;5016964;28;20751;-78
2022/03/18 01:30:52;;;;;;;15.87;10.17;;;2.10;99.90;;;;;;5017944;28;20639;-78
2022/03/18 01:33:18;;;;;;;12.60;11.13;;;2.10;99.90;;;;;;5018419;28;20182;-78
2022/03/18 01:35:44;;;;;;;15.30;10.77;;;2.00;99.90;;;;;;5016686;28;20265;-78
2022/03/18 01:38:09;;;;;;;15.30;10.57;;;1.90;99.90;;;;;;5018172;28;20180;-79
2022/03/18 01:40:35;;;;;;;15.07;10.50;;;1.90;99.90;;;;;;5017867;28;20550;-79
2022/03/18 01:43:01;;;;;;;17.40;11.90;;;1.80;99.90;;;;;;5018260;28;20630;-78
2022/03/18 01:45:26;;;;;;;15.00;11.37;;;1.70;99.90;;;;;;5016981;28;20172;-78
2022/03/18 01:47:52;;;;;;;14.77;10.60;;;1.70;99.90;;;;;;5016870;28;20222;-78
2022/03/18 01:50:18;;;;;;;16.20;11.20;;;1.80;99.90;;;;;;5016850;28;20183;-79
2022/03/18 01:52:45;;;;;;;13.33;11.17;;;1.80;99.90;;;;;;5016103;28;20184;-78
2022/03/18 01:55:12;;;;;;;12.07;10.77;;;1.80;99.90;;;;;;5018691;28;20525;-78
2022/03/18 01:57:38;;;;;;;15.80;10.30;;;1.70;99.90;;;;;;5016512;28;20301;-78
2022/03/18 02:00:05;;;;;;;11.30;10.20;;;1.70;99.90;;;;;;5018350;28;20254;-78
2022/03/18 02:02:32;;;;;;;14.07;10.43;;;1.60;99.90;;;;;;5017374;28;20545;-79
2022/03/18 02:04:58;;;;;;;12.17;10.40;;;1.50;99.90;;;;;;5016370;28;20564;-79
2022/03/18 02:07:24;;;;;;;15.93;10.30;;;1.60;99.90;;;;;;5015939;28;20211;-78
2022/03/18 02:09:49;;;;;;;12.33;10.67;;;1.60;99.90;;;;;;5015745;28;20215;-78
2022/03/18 02:12:15;;;;;;;13.50;10.73;;;1.50;99.90;;;;;;5015825;28;20180;-78
2022/03/18 02:14:44;;;;;;;14.20;11.00;;;1.50;99.90;;;;;;5015767;28;20183;-78
2022/03/18 02:17:16;;;;;;;16.77;10.73;;;1.50;99.90;;;;;;5017444;28;20220;-78
2022/03/18 02:19:43;;;;;;;13.00;9.80;;;1.40;99.90;;;;;;5017333;28;20214;-79
2022/03/18 02:22:11;;;;;;;14.03;10.07;;;1.40;99.90;;;;;;5001170;28;20172;-80
2022/03/18 02:24:45;;;;;;;14.17;11.30;;;1.30;99.90;;;;;;5017680;28;20271;-80
2022/03/18 02:27:11;;;;;;;14.10;10.87;;;1.30;99.90;;;;;;5018200;28;20207;-80
2022/03/18 02:29:38;;;;;;;11.77;10.37;;;1.30;99.90;;;;;;5018858;28;20180;-80
2022/03/18 02:32:06;;;;;;;12.47;10.10;;;1.20;99.90;;;;;;5018928;28;20186;-80
2022/03/18 02:34:32;;;;;;;13.37;9.83;;;1.20;99.90;;;;;;5016760;28;20188;-79
2022/03/18 02:36:59;;;;;;;10.13;9.23;;;1.20;99.90;;;;;;5016758;28;20203;-79
2022/03/18 02:39:25;;;;;;;11.07;9.43;;;1.20;99.90;;;;;;4999756;28;20208;-78
2022/03/18 02:41:51;;;;;;;12.27;10.00;;;1.20;99.90;;;;;;5018631;28;20222;-78
2022/03/18 02:44:17;;;;;;;11.03;9.93;;;1.30;99.90;;;;;;5018186;28;20650;-80
2022/03/18 02:46:42;;;;;;;13.20;10.60;;;1.40;99.90;;;;;;5002159;28;20200;-79
2022/03/18 02:49:08;;;;;;;12.53;10.60;;;1.40;99.90;;;;;;5018034;28;20187;-79
2022/03/18 02:51:37;;;;;;;13.83;11.87;;;1.50;99.90;;;;;;5018407;28;20229;-80
2022/03/18 02:54:06;;;;;;;13.33;11.27;;;1.50;99.90;;;;;;5017850;28;20654;-79
2022/03/18 02:56:33;;;;;;;12.80;10.63;;;1.50;99.90;;;;;;5017294;28;20212;-79
2022/03/18 02:59:00;;;;;;;10.60;9.20;;;1.40;99.90;;;;;;5018190;28;20643;-79
2022/03/18 03:01:30;;;;;;;11.77;9.80;;;1.30;99.90;;;;;;5002305;28;20175;-79
2022/03/18 03:03:57;;;;;;;10.50;9.37;;;1.30;99.90;;;;;;5002332;28;20169;-79
2022/03/18 03:09:07;;;;;;;14.83;10.33;;;1.10;99.90;;;;;;5020037;28;20179;-80
2022/03/18 03:11:34;;;;;;;17.43;9.73;;;1.00;99.90;;;;;;5019862;28;20180;-80
2022/03/18 03:14:00;;;;;;;13.87;9.77;;;1.00;99.90;;;;;;5000884;28;20211;-80
2022/03/18 03:16:26;;;;;;;14.70;10.57;;;1.10;99.90;;;;;;5000520;28;20207;-80
2022/03/18 03:18:52;;;;;;;15.27;10.67;;;1.20;99.90;;;;;;5020234;28;20172;-79
2022/03/18 03:21:20;;;;;;;15.87;12.00;;;1.20;99.90;;;;;;5017207;28;20563;-81
2022/03/18 03:23:45;;;;;;;15.40;11.57;;;1.30;99.90;;;;;;5016039;28;20184;-81
2022/03/18 03:26:12;;;;;;;13.93;11.83;;;1.20;99.90;;;;;;5015499;28;20203;-81
2022/03/18 03:28:38;;;;;;;18.23;12.20;;;1.20;99.90;;;;;;5016159;28;20529;-81
2022/03/18 03:31:04;;;;;;;17.60;10.80;;;1.20;99.90;;;;;;5016272;28;20198;-81
2022/03/18 03:33:31;;;;;;;14.60;11.07;;;1.00;99.90;;;;;;5015418;28;20237;-80
2022/03/18 03:35:57;;;;;;;13.00;11.13;;;0.90;99.90;;;;;;5016108;28;20739;-80
2022/03/18 03:38:23;;;;;;;16.10;11.57;;;0.90;99.90;;;;;;5017025;28;20183;-80
2022/03/18 03:40:49;;;;;;;12.83;10.90;;;0.80;99.90;;;;;;5015839;28;20182;-79
2022/03/18 03:43:16;;;;;;;11.90;10.67;;;0.70;99.90;;;;;;5016793;28;20186;-79
2022/03/18 03:45:42;;;;;;;12.97;10.60;;;0.70;99.90;;;;;;5015278;28;20298;-79
2022/03/18 03:48:10;;;;;;;14.10;10.33;;;0.60;99.90;;;;;;5015553;28;20180;-79
2022/03/18 03:50:36;;;;;;;13.10;10.60;;;0.60;99.90;;;;;;5017008;28;20222;-79
2022/03/18 03:53:05;;;;;;;14.57;11.43;;;0.70;99.90;;;;;;5015316;28;20180;-79
2022/03/18 03:55:31;;;;;;;14.57;11.10;;;0.70;99.90;;;;;;5015345;28;20247;-79
2022/03/18 03:57:56;;;;;;;13.17;11.07;;;0.80;99.90;;;;;;5015336;28;20271;-79
2022/03/18 04:00:22;;;;;;;21.90;12.13;;;0.90;99.90;;;;;;5015199;28;20226;-79
2022/03/18 04:02:48;;;;;;;11.63;10.43;;;0.90;99.90;;;;;;5015148;28;20168;-79
2022/03/18 04:05:13;;;;;;;14.00;11.47;;;0.80;99.90;;;;;;5015242;28;20195;-79
2022/03/18 04:07:44;;;;;;;18.63;12.80;;;0.80;99.90;;;;;;5015144;28;20179;-79
2022/03/18 04:10:12;;;;;;;15.97;12.40;;;0.70;99.90;;;;;;5016744;28;20175;-79
2022/03/18 04:12:39;;;;;;;20.40;13.00;;;0.60;99.90;;;;;;5016041;28;20184;-79
2022/03/18 04:15:05;;;;;;;17.80;12.07;;;0.60;99.90;;;;;;5016258;28;20188;-80
2022/03/18 04:17:43;;;;;;;16.87;12.97;;;0.60;99.90;;;;;;5019244;28;20216;-79
2022/03/18 04:20:11;;;;;;;15.80;12.53;;;0.70;99.90;;;;;;5017781;28;20194;-79
2022/03/18 04:22:38;;;;;;;16.73;11.40;;;0.60;99.90;;;;;;5017282;28;20635;-80
2022/03/18 04:25:05;;;;;;;13.37;11.63;;;0.60;99.90;;;;;;5017199;28;20190;-79
2022/03/18 04:27:31;;;;;;;14.40;11.73;;;0.70;99.90;;;;;;5016788;28;20219;-79
2022/03/18 04:29:57;;;;;;;19.77;13.30;;;0.70;99.90;;;;;;5017327;28;20219;-79
2022/03/18 04:32:23;;;;;;;18.63;12.47;;;0.70;99.90;;;;;;5015345;28;20184;-79
2022/03/18 04:34:49;;;;;;;17.83;12.60;;;0.60;99.90;;;;;;5017028;28;20179;-81
2022/03/18 04:37:14;;;;;;;15.60;11.97;;;0.50;99.90;;;;;;5015022;28;20216;-80
2022/03/18 04:39:40;;;;;;;15.63;12.07;;;0.40;99.90;;;;;;5015676;28;20184;-80
2022/03/18 04:42:06;;;;;;;15.83;12.80;;;0.30;99.90;;;;;;5015920;28;20191;-80
2022/03/18 04:44:31;;;;;;;16.00;12.50;;;0.30;99.90;;;;;;5015153;28;20179;-80
2022/03/18 04:46:57;;;;;;;15.47;12.13;;;0.30;99.90;;;;;;5015499;28;20271;-79
2022/03/18 04:49:23;;;;;;;16.37;12.67;;;0.20;99.90;;;;;;5016494;28;20237;-79
2022/03/18 04:51:48;;;;;;;14.73;12.47;;;0.20;99.90;;;;;;5016831;28;20206;-79
2022/03/18 04:54:14;;;;;;;17.83;12.67;;;0.20;99.90;;;;;;5017576;28;20726;-79
2022/03/18 04:59:24;;;;;;;14.63;11.60;;;0.10;99.90;;;;;;5018493;28;20271;-79
2022/03/18 05:01:50;;;;;;;14.80;12.20;;;0.10;99.90;;;;;;5017303;28;20183;-79
2022/03/18 05:04:15;;;;;;;12.97;11.67;;;0.10;99.90;;;;;;5015180;28;20197;-79
2022/03/18 05:06:41;;;;;;;11.60;10.33;;;0.10;99.90;;;;;;5014589;28;20216;-79
2022/03/18 05:09:07;;;;;;;11.73;10.53;;;0.00;99.90;;;;;;5014232;28;20668;-80
2022/03/18 05:11:33;;;;;;;11.23;10.03;;;-0.10;99.90;;;;;;5015971;28;20195;-79
2022/03/18 05:13:58;;;;;;;12.33;11.03;;;-0.20;99.90;;;;;;5015653;28;20262;-79
2022/03/18 05:16:27;;;;;;;15.60;13.10;;;-0.30;99.90;;;;;;5014182;28;20234;-79
2022/03/18 05:18:53;;;;;;;13.03;11.53;;;-0.30;99.90;;;;;;5014385;28;20172;-79
2022/03/18 05:21:22;;;;;;;15.20;12.97;;;-0.30;99.90;;;;;;5014033;28;20285;-79
2022/03/18 05:23:48;;;;;;;12.40;10.63;;;-0.30;99.90;;;;;;5014691;28;20200;-79
2022/03/18 05:26:14;;;;;;;15.40;12.47;;;-0.30;99.90;;;;;;5015713;28;20226;-80
2022/03/18 05:28:40;;;;;;;14.40;12.53;;;-0.30;99.90;;;;;;5018538;28;20184;-79
2022/03/18 05:31:06;;;;;;;13.60;12.20;;;-0.40;99.90;;;;;;5019827;28;20183;-79
2022/03/18 05:33:32;;;;;;;15.37;11.63;;;-0.40;99.90;;;;;;5018686;28;20183;-79
2022/03/18 05:35:58;;;;;;;17.83;11.93;;;-0.30;99.90;;;;;;5017809;28;20258;-79
2022/03/18 05:38:25;;;;;;;13.00;11.70;;;-0.30;99.90;;;;;;5019383;28;20200;-79
2022/03/18 05:40:51;;;;;;;14.00;12.33;;;-0.20;99.90;;;;;;5018964;28;20246;-79
2022/03/18 05:43:17;;;;;;;18.00;13.10;;;-0.20;99.90;;;;;;5017454;28;20261;-79
2022/03/18 05:45:43;;;;;;;16.40;11.97;;;-0.30;99.90;;;;;;5017648;28;20191;-79
2022/03/18 05:48:09;;;;;;;12.83;11.63;;;-0.20;99.90;;;;;;5019137;28;20568;-79
2022/03/18 05:50:35;;;;;;;15.20;12.53;;;-0.30;99.90;;;;;;5017671;28;20183;-79
2022/03/18 05:53:01;;;;;;;13.37;11.97;;;-0.40;99.90;;;;;;5018606;28;20172;-79
2022/03/18 05:56:52;;;;;;;13.70;11.57;;;-0.40;99.90;;;;;;5017463;28;20180;-79
2022/03/18 05:58:14;;;;;;;12.73;11.43;;;-0.30;99.90;;;;;;5018621;28;20188;-79
2022/03/18 06:00:44;;;;;;;12.47;11.17;;;-0.40;99.90;;;;;;5017824;28;20271;-79
2022/03/18 06:03:10;;;;;;;12.60;11.27;;;-0.50;99.90;;;;;;5017246;28;20238;-79
2022/03/18 06:05:36;;;;;;;13.97;12.13;;;-0.40;99.90;;;;;;5016328;28;20231;-79
2022/03/18 06:13:30;;;;;;;12.37;11.17;;;-0.40;99.90;;;;;;5018141;28;20179;-79
2022/03/18 06:15:56;;;;;;;12.80;11.60;;;-0.40;99.90;;;;;;5017523;28;20565;-79
2022/03/18 06:18:21;;;;;;;20.90;16.03;;;-0.30;99.90;;;;;;5016296;28;20184;-79
2022/03/18 06:20:51;;;;;;;35.37;21.70;;;-0.20;99.90;;;;;;5016212;28;20184;-79
2022/03/18 06:23:17;;;;;;;48.03;28.63;;;-0.10;99.90;;;;;;5018287;28;20176;-79
2022/03/18 06:25:43;;;;;;;40.13;26.60;;;0.00;99.90;;;;;;5018540;28;20685;-79
2022/03/18 06:28:09;;;;;;;31.17;22.27;;;0.00;99.90;;;;;;5016611;28;20558;-79
2022/03/18 06:30:35;;;;;;;35.37;23.23;;;0.00;99.90;;;;;;5016807;28;20183;-79
2022/03/18 06:33:01;;;;;;;26.83;19.63;;;0.00;99.90;;;;;;5016749;28;20191;-79
2022/03/18 06:35:26;;;;;;;34.33;23.73;;;0.10;99.90;;;;;;5017418;28;20176;-79
2022/03/18 06:37:52;;;;;;;33.23;21.00;;;0.10;99.90;;;;;;5016005;28;20633;-79
2022/03/18 06:40:18;;;;;;;31.13;20.93;;;0.20;99.90;;;;;;5015805;28;20187;-79
2022/03/18 06:42:44;;;;;;;30.33;19.73;;;0.20;99.90;;;;;;5016807;28;20172;-79
2022/03/18 06:45:10;;;;;;;20.00;15.47;;;0.30;99.90;;;;;;5015751;28;20237;-79
2022/03/18 06:47:35;;;;;;;17.53;15.23;;;0.40;99.90;;;;;;5016708;28;20202;-79
2022/03/18 06:50:01;;;;;;;18.33;14.93;;;0.60;99.90;;;;;;5016176;28;20179;-79
2022/03/18 06:52:27;;;;;;;14.97;13.50;;;0.70;99.90;;;;;;5015634;28;20233;-79
2022/03/18 06:54:52;;;;;;;15.60;12.37;;;0.90;99.90;;;;;;5014880;28;20180;-79
2022/03/18 06:57:19;;;;;;;15.17;12.90;;;1.10;99.90;;;;;;5014742;28;20298;-79
2022/03/18 06:59:45;;;;;;;16.07;13.30;;;1.20;99.90;;;;;;5014912;28;20179;-79
2022/03/18 07:02:13;;;;;;;14.43;12.93;;;1.30;99.90;;;;;;5014857;28;20188;-79
2022/03/18 07:04:39;;;;;;;14.23;12.73;;;1.40;99.90;;;;;;5014538;28;20187;-79
2022/03/18 07:07:06;;;;;;;18.00;14.07;;;1.50;99.90;;;;;;5016376;28;20218;-79
2022/03/18 07:09:32;;;;;;;14.93;13.33;;;1.60;99.90;;;;;;5015049;28;20317;-79
2022/03/18 07:11:57;;;;;;;17.07;13.57;;;1.70;99.90;;;;;;5014846;28;20237;-79
2022/03/18 07:14:23;;;;;;;18.90;13.77;;;1.80;99.90;;;;;;5014713;28;20769;-80
2022/03/18 07:19:33;;;;;;;16.77;13.93;;;2.10;99.90;;;;;;5016701;28;20167;-79
2022/03/18 07:21:59;;;;;;;17.50;14.63;;;2.30;99.90;;;;;;5015923;28;20179;-79
2022/03/18 07:24:24;;;;;;;16.07;14.37;;;2.60;99.90;;;;;;5015556;28;20278;-80
2022/03/18 07:26:50;;;;;;;17.77;15.27;;;2.60;99.90;;;;;;5016896;28;20223;-80
2022/03/18 07:29:16;;;;;;;17.83;14.83;;;2.80;99.90;;;;;;5017030;28;20211;-80
2022/03/18 07:31:42;;;;;;;20.30;14.90;;;3.00;99.90;;;;;;5016845;28;20207;-80
2022/03/18 07:34:07;;;;;;;23.53;15.13;;;3.10;99.90;;;;;;5016790;28;20553;-80
2022/03/18 07:36:33;;;;;;;19.13;15.00;;;3.20;99.90;;;;;;5014899;28;20238;-80
2022/03/18 07:38:59;;;;;;;19.60;16.33;;;3.30;99.90;;;;;;5015611;28;20194;-80
2022/03/18 07:41:25;;;;;;;20.67;15.73;;;3.40;99.90;;;;;;5014940;28;20625;-79
2022/03/18 07:43:50;;;;;;;21.20;15.17;;;3.60;99.90;;;;;;5014714;28;20180;-79
2022/03/18 07:46:17;;;;;;;18.40;16.07;;;3.70;99.90;;;;;;5015926;28;20253;-79
2022/03/18 07:48:44;;;;;;;20.10;15.30;;;3.90;99.90;;;;;;5016388;28;20187;-79
2022/03/18 07:51:11;;;;;;;21.03;16.63;;;4.00;99.90;;;;;;5015657;28;20192;-79
2022/03/18 07:53:37;;;;;;;20.03;16.67;;;4.10;99.90;;;;;;5014638;28;20187;-77
2022/03/18 07:56:04;;;;;;;24.17;18.37;;;4.30;99.90;;;;;;5015995;28;20199;-78
2022/03/18 07:58:30;;;;;;;21.60;15.77;;;4.40;99.90;;;;;;5016254;28;20242;-78
2022/03/18 08:00:56;;;;;;;26.57;17.07;;;4.50;99.90;;;;;;5016096;28;20640;-78
2022/03/18 08:03:22;;;;;;;23.57;17.27;;;4.70;99.90;;;;;;5016021;28;20176;-78
2022/03/18 08:05:47;;;;;;;22.57;16.20;;;4.90;99.90;;;;;;5014171;28;20569;-78
2022/03/18 08:08:13;;;;;;;27.20;16.60;;;5.10;99.90;;;;;;5015841;28;20264;-78
2022/03/18 08:10:39;;;;;;;19.33;15.93;;;5.30;99.90;;;;;;5016145;28;20180;-78
2022/03/18 08:13:05;;;;;;;20.70;16.17;;;5.50;99.90;;;;;;5014455;28;20188;-78
2022/03/18 08:15:31;;;;;;;19.87;15.30;;;5.50;99.90;;;;;;5014816;28;20190;-78
2022/03/18 08:17:58;;;;;;;25.53;15.73;;;5.60;99.90;;;;;;5014571;28;20310;-78
2022/03/18 08:20:24;;;;;;;22.13;15.83;;;5.80;99.90;;;;;;5014908;28;20556;-78
2022/03/18 08:22:51;;;;;;;23.73;15.77;;;6.10;99.90;;;;;;5016302;28;20191;-78
2022/03/18 08:25:18;;;;;;;18.50;14.63;;;6.50;99.90;;;;;;5015019;28;20190;-78
2022/03/18 08:27:44;;;;;;;16.97;13.20;;;7.50;99.90;;;;;;5015033;28;20222;-79
2022/03/18 08:30:13;;;;;;;19.17;12.63;;;9.10;99.90;;;;;;5015397;28;20183;-79
2022/03/18 08:32:40;;;;;;;13.83;11.00;;;10.90;99.90;;;;;;5016323;28;20176;-79
2022/03/18 08:35:07;;;;;;;17.30;11.07;;;12.50;99.90;;;;;;5016270;28;20631;-79
2022/03/18 08:40:17;;;;;;;12.15;8.57;;;14.30;99.90;;;;;;5017148;28;20191;-79
2022/03/18 08:42:43;;;;;;;13.75;8.30;;;15.10;99.90;;;;;;5017114;28;20176;-79
2022/03/18 08:45:09;;;;;;;11.65;8.07;;;15.50;99.90;;;;;;5000698;28;20556;-79
2022/03/18 08:47:36;;;;;;;15.05;7.85;;;15.80;99.90;;;;;;4999498;28;20282;-80
2022/03/18 08:50:02;;;;;;;15.07;7.47;;;16.40;99.90;;;;;;4999861;28;20171;-80
2022/03/18 08:52:27;;;;;;;9.73;6.93;;;16.50;99.90;;;;;;5018028;28;20199;-80
2022/03/18 08:54:53;;;;;;;8.93;6.88;;;16.90;99.90;;;;;;5017570;28;20176;-80
2022/03/18 08:57:19;;;;;;;10.93;6.10;;;17.60;99.90;;;;;;5017970;28;20242;-80
2022/03/18 08:59:44;;;;;;;9.02;6.07;;;17.50;99.90;;;;;;5001497;28;20180;-80
2022/03/18 09:02:10;;;;;;;11.52;6.32;;;17.80;99.90;;;;;;5004348;28;20172;-80
2022/03/18 09:04:36;;;;;;;10.73;5.43;;;17.80;99.90;;;;;;5020549;28;20172;-80
2022/03/18 09:07:03;;;;;;;9.55;4.40;;;17.70;99.90;;;;;;5018392;28;20601;-80
2022/03/18 09:09:28;;;;;;;7.10;4.88;;;17.80;99.90;;;;;;5001600;28;20227;-80
2022/03/18 09:11:54;;;;;;;8.40;5.10;;;17.70;99.90;;;;;;5019156;28;20188;-80
2022/03/18 09:14:20;;;;;;;10.55;5.57;;;17.60;99.90;;;;;;5018383;28;20191;-80
2022/03/18 09:16:49;;;;;;;7.88;5.13;;;17.30;99.90;;;;;;5019781;28;20197;-80
2022/03/18 09:19:15;;;;;;;8.98;4.97;;;17.00;99.90;;;;;;5019494;28;20183;-80
2022/03/18 09:21:41;;;;;;;5.82;4.38;;;16.90;99.90;;;;;;5001517;28;20180;-80
2022/03/18 09:24:07;;;;;;;12.60;5.10;;;16.40;99.90;;;;;;5001341;28;20184;-80
2022/03/18 09:26:33;;;;;;;6.07;4.18;;;15.70;99.90;;;;;;5018734;28;20207;-80
2022/03/18 09:28:59;;;;;;;6.55;4.43;;;15.20;99.90;;;;;;5001558;28;20180;-80
2022/03/18 09:31:24;;;;;;;4.97;4.07;;;14.80;99.90;;;;;;5017630;28;20270;-80
2022/03/18 09:33:50;;;;;;;9.60;4.60;;;14.40;99.90;;;;;;5019183;28;20176;-81
2022/03/18 09:36:18;;;;;;;7.97;4.75;;;14.00;99.90;;;;;;5001176;28;20207;-81
2022/03/18 09:38:48;;;;;;;5.05;4.50;;;13.60;99.90;;;;;;5001709;28;20180;-81
2022/03/18 09:41:14;;;;;;;10.55;4.95;;;13.20;99.90;;;;;;5001202;28;20230;-81
2022/03/18 09:43:41;;;;;;;8.48;4.13;;;12.80;99.90;;;;;;5000980;28;20202;-81
2022/03/18 09:46:10;;;;;;;7.80;4.70;;;12.60;99.90;;;;;;5001389;28;20203;-81
2022/03/18 09:48:37;;;;;;;5.65;4.35;;;12.50;99.90;;;;;;5001437;28;20199;-81
2022/03/18 09:51:03;;;;;;;9.65;5.03;;;12.40;99.90;;;;;;5018537;28;20226;-81
2022/03/18 09:53:28;;;;;;;9.68;4.53;;;12.20;99.90;;;;;;5018178;28;20204;-81
2022/03/18 09:55:55;;;;;;;5.25;4.45;;;12.20;99.90;;;;;;5000120;28;20212;-81
2022/03/18 09:58:22;;;;;;;6.07;4.68;;;12.10;99.90;;;;;;5000446;28;20187;-80
2022/03/18 10:00:50;;;;;;;9.23;5.30;;;12.00;99.90;;;;;;5017881;28;20610;-80
2022/03/18 10:03:18;;;;;;;9.23;4.97;;;12.00;99.90;;;;;;5000550;28;20262;-80
2022/03/18 10:06:00;;;;;;;6.47;4.90;;;12.00;99.90;;;;;;5018941;28;20661;-80
2022/03/18 10:08:50;;;;;;;7.50;4.80;;;11.90;99.90;;;;;;5006360;28;20168;-80
2022/03/18 10:11:23;;;;;;;8.27;5.27;;;11.80;99.90;;;;;;5005308;28;20168;-80
2022/03/18 10:14:06;;;;;;;8.57;4.97;;;11.80;99.90;;;;;;5002738;28;20254;-81
2022/03/18 10:16:46;;;;;;;8.67;5.20;;;11.60;99.90;;;;;;5020609;28;20195;-81
2022/03/18 10:19:13;;;;;;;8.87;4.97;;;11.70;99.90;;;;;;5020080;28;20623;-81
2022/03/18 10:21:58;;;;;;;5.13;4.63;;;11.60;99.90;;;;;;5002416;28;20203;-81
2022/03/18 10:24:30;;;;;;;7.60;4.90;;;11.60;99.90;;;;;;5019339;28;20184;-81
2022/03/18 10:27:17;;;;;;;8.40;4.70;;;11.50;99.90;;;;;;5001683;28;20229;-81
2022/03/18 10:29:44;;;;;;;6.23;5.20;;;11.50;99.90;;;;;;5017426;28;20179;-81
2022/03/18 10:32:11;;;;;;;6.10;4.90;;;11.50;99.90;;;;;;5000732;28;20526;-81
2022/03/18 10:37:25;;;;;;;6.60;5.47;;;11.50;99.90;;;;;;5018111;28;20203;-80
2022/03/18 10:39:58;;;;;;;7.50;5.40;;;11.70;99.90;;;;;;5017601;28;20168;-80
2022/03/18 10:42:24;;;;;;;9.60;5.53;;;11.80;99.90;;;;;;4999955;28;20175;-80
2022/03/18 10:44:59;;;;;;;6.67;5.50;;;11.80;99.90;;;;;;4999198;28;20179;-80
2022/03/18 10:47:37;;;;;;;5.80;5.00;;;11.90;99.90;;;;;;4999000;28;20707;-80
2022/03/18 10:50:12;;;;;;;7.50;5.10;;;11.90;99.90;;;;;;5016728;28;20175;-80
2022/03/18 10:52:47;;;;;;;10.77;5.03;;;12.00;99.90;;;;;;5016489;28;20171;-80
2022/03/18 10:55:20;;;;;;;6.30;4.93;;;12.20;99.90;;;;;;5016704;28;20239;-80
2022/03/18 10:58:00;;;;;;;5.57;4.97;;;12.20;99.90;;;;;;5016990;28;20337;-80
2022/03/18 11:00:31;;;;;;;5.40;4.60;;;12.30;99.90;;;;;;5015530;28;20198;-80
2022/03/18 11:02:58;;;;;;;11.83;4.60;;;12.40;99.90;;;;;;4998248;28;20172;-80
2022/03/18 11:05:26;;;;;;;8.93;4.93;;;12.60;99.90;;;;;;4998163;28;20199;-80
2022/03/18 11:07:54;;;;;;;5.47;4.75;;;12.80;99.90;;;;;;4998399;28;20184;-80
2022/03/18 11:13:07;;;;;;;6.72;4.65;;;12.90;99.90;;;;;;5016211;28;20533;-80
2022/03/18 11:15:35;;;;;;;7.10;5.20;;;12.90;99.90;;;;;;5015889;28;20172;-80
2022/03/18 11:18:04;;;;;;;5.30;4.80;;;13.10;99.90;;;;;;5015819;28;20621;-80
2022/03/18 11:20:34;;;;;;;8.27;4.88;;;13.30;99.90;;;;;;5016347;28;20172;-80
2022/03/18 11:23:00;;;;;;;7.40;4.87;;;13.30;99.90;;;;;;5014805;28;20168;-80
2022/03/18 11:25:28;;;;;;;7.10;4.72;;;13.40;99.90;;;;;;5015587;28;20175;-80
2022/03/18 11:27:56;;;;;;;5.63;4.65;;;13.60;99.90;;;;;;4998514;28;20662;-80
2022/03/18 11:30:35;;;;;;;6.20;4.78;;;13.80;99.90;;;;;;5016334;28;20180;-80
2022/03/18 11:33:09;;;;;;;6.70;4.85;;;14.00;99.90;;;;;;4998759;28;20182;-80
2022/03/18 11:35:55;;;;;;;7.95;4.90;;;14.20;99.90;;;;;;5016265;28;20171;-81
2022/03/18 11:38:47;;;;;;;6.25;4.95;;;14.40;99.90;;;;;;5008627;28;20199;-81
2022/03/18 11:41:14;;;;;;;7.35;4.90;;;14.50;99.90;;;;;;4999442;28;20179;-81
2022/03/18 11:43:40;;;;;;;8.75;4.60;;;14.70;99.90;;;;;;5000564;28;20698;-81
2022/03/18 11:46:17;;;;;;;8.43;4.60;;;14.70;99.90;;;;;;4999381;28;20238;-81
2022/03/18 11:48:55;;;;;;;5.68;4.30;;;14.70;99.90;;;;;;4998444;28;20183;-81
2022/03/18 11:51:35;;;;;;;6.65;4.68;;;14.70;99.90;;;;;;5016826;28;20171;-81
2022/03/18 11:54:23;;;;;;;5.13;4.40;;;14.80;99.90;;;;;;5016459;28;20164;-81
2022/03/18 11:56:54;;;;;;;6.60;4.72;;;14.90;99.90;;;;;;4998700;28;20258;-81
2022/03/18 11:59:27;;;;;;;6.20;5.25;;;15.10;99.90;;;;;;5016586;28;20163;-81
2022/03/18 12:01:54;;;;;;;7.05;4.60;;;15.30;99.90;;;;;;5016534;28;20178;-81
2022/03/18 12:04:39;;;;;;;5.47;4.43;;;15.40;99.90;;;;;;5016233;28;20176;-81
2022/03/18 12:07:13;;;;;;;6.72;4.55;;;15.50;99.90;;;;;;5016596;28;20208;-81
2022/03/18 12:09:48;;;;;;;8.93;4.60;;;15.50;99.90;;;;;;4998455;28;20175;-81
2022/03/18 12:12:15;;;;;;;6.93;4.40;;;15.60;99.90;;;;;;4999061;28;20191;-81
2022/03/18 12:14:41;;;;;;;6.47;4.75;;;15.70;99.90;;;;;;5017579;28;20638;-81
2022/03/18 12:17:07;;;;;;;6.65;4.45;;;16.00;99.90;;;;;;4999481;28;20203;-81
2022/03/18 12:19:36;;;;;;;7.63;5.05;;;16.30;99.90;;;;;;4998810;28;20167;-81
2022/03/18 12:22:03;;;;;;;6.35;4.35;;;16.20;99.90;;;;;;4998236;28;20180;-81
2022/03/18 12:24:29;;;;;;;5.38;4.30;;;16.30;99.90;;;;;;4998194;28;20681;-81
2022/03/18 12:26:55;;;;;;;5.75;4.18;;;16.30;99.90;;;;;;5014107;28;20218;-81
2022/03/18 12:29:26;;;;;;;6.95;4.32;;;16.40;99.90;;;;;;5016245;28;20168;-81
2022/03/18 12:32:01;;;;;;;7.18;4.20;;;16.50;99.90;;;;;;4999143;28;20187;-81
2022/03/18 12:34:27;;;;;;;8.25;4.30;;;16.80;99.90;;;;;;5018367;28;20229;-81
2022/03/18 12:36:53;;;;;;;5.40;4.07;;;17.00;99.90;;;;;;5002189;28;20694;-81
2022/03/18 12:39:19;;;;;;;6.57;3.88;;;17.00;99.90;;;;;;5019627;28;20234;-81
2022/03/18 12:41:45;;;;;;;5.28;3.65;;;17.30;99.90;;;;;;5021450;28;20186;-81
2022/03/18 12:44:11;;;;;;;6.20;3.80;;;17.50;99.90;;;;;;5024797;28;20516;-81
2022/03/18 12:46:40;;;;;;;7.00;3.63;;;17.60;99.90;;;;;;5003603;28;20286;-81
2022/03/18 12:49:09;;;;;;;7.15;4.13;;;17.50;99.90;;;;;;5019527;28;20187;-81
2022/03/18 12:51:36;;;;;;;9.38;4.68;;;17.70;99.90;;;;;;5021225;28;20792;-81
2022/03/18 12:54:02;;;;;;;6.20;4.65;;;17.70;99.90;;;;;;5002803;28;20171;-81
2022/03/18 12:56:30;;;;;;;9.00;4.45;;;17.70;99.90;;;;;;5003875;28;20210;-81
2022/03/18 12:58:57;;;;;;;7.78;3.58;;;18.00;99.90;;;;;;5021249;28;20222;-81
2022/03/18 13:01:24;;;;;;;4.38;3.50;;;18.10;99.90;;;;;;5003146;28;20230;-81
2022/03/18 13:03:51;;;;;;;4.60;3.50;;;18.00;99.90;;;;;;5009867;28;20642;-80
2022/03/18 13:06:19;;;;;;;5.97;3.90;;;18.40;99.90;;;;;;5002028;28;20215;-81
2022/03/18 13:08:56;;;;;;;5.03;4.35;;;18.70;99.90;;;;;;5001666;28;20183;-81
2022/03/18 13:11:30;;;;;;;4.90;3.17;;;18.90;99.90;;;;;;5021619;28;20186;-82